Latest Coastal Weather Observations for Low Head

IDT60701

Issued at 5:12 pm EST Thursday 30 May 2024 (issued every 10 minutes, with the page automatically refreshed every 10 minutes)

About coastal observations | Map of coastal stations | Coastal observations for TAS | Marine services | Other Formats
Station Details ID: 091293 Name: LOW HEAD Lat: -41.05 Lon: 146.79 Height: 3.0 m
Data from the previous 72 hours. | See also: Recent months at Low Head
Date/Time
EST
Wind Sea
Height
m
Swell Vis
km
Cloud Weather Temp
°C
Press
MSL
hPa
Rain since
9am
mm
Dir  Spd
kts
Gust
kts
Height
m
Period
s
Dir
30/05:00pm NNW 15 22 - - - - - - - 16.7 1008.3 0.0
30/04:30pm N 16 17 - - - - - - - 16.6 1008.3 0.0
30/04:00pm N 18 20 - - - - - - - 16.6 1008.5 0.0
30/03:30pm N 17 21 - - - - - - - 16.7 1008.4 0.0
30/03:00pm N 19 24 - - - - - - - 16.8 1008.5 0.0
30/02:30pm N 21 24 - - - - - - - 17.1 1008.4 0.0
30/02:00pm N 22 25 - - - - - - - 17.1 1008.3 0.0
30/01:30pm N 21 25 - - - - - - - 17.1 1008.8 0.0
30/01:00pm N 19 23 - - - - - - - 17.1 1009.3 0.0
30/12:30pm N 18 22 - - - - - - - 17.6 1010.3 0.0
30/12:00pm NNE 10 14 - - - - - - - 17.2 1011.4 0.0
30/11:30am NE 15 20 - - - - - - - 16.4 1011.9 0.0
30/11:00am NE 14 16 - - - - - - - 16.1 1012.6 0.0
30/10:30am NE 15 18 - - - - - - - 15.4 1013.2 0.0
30/10:00am ENE 16 19 - - - - - - - 14.9 1013.8 0.0
30/09:54am ENE 15 18 - - - - - - - 14.8 1013.9 0.0
30/09:30am SE 6 8 - - - - - - - 12.9 1014.5 0.0
30/09:00am ESE 6 8 - - - - - - - 11.8 1014.9 0.4
30/08:30am ESE 7 9 - - - - - - - 10.5 1015.3 0.4
30/08:00am ESE 7 9 - - - - - - - 9.8 1015.6 0.4
30/07:30am ESE 7 8 - - - - - - - 9.0 1015.7 0.4
30/07:00am SSE 7 8 - - - - - - - 8.7 1015.8 0.2
30/06:30am SSE 8 9 - - - - - - - 8.7 1015.8 0.2
30/06:00am SSE 7 8 - - - - - - - 8.8 1015.8 0.2
30/05:30am SSE 9 10 - - - - - - - 8.4 1016.0 0.2
30/05:00am SSE 8 10 - - - - - - - 8.1 1016.1 0.2
30/04:30am ESE 6 10 - - - - - - - 8.4 1016.4 0.2
30/04:00am SE 7 8 - - - - - - - 8.7 1016.8 0.2
30/03:30am SSE 8 9 - - - - - - - 8.0 1017.1 0.2
30/03:00am SSE 8 9 - - - - - - Recent precip. 7.5 1017.5 0.2
30/02:30am SE 9 10 - - - - - - - 8.3 1017.8 0.2
30/02:00am SSE 9 11 - - - - - - - 8.0 1018.0 0.0
30/01:30am SSE 9 10 - - - - - - - 8.7 1018.2 0.0
30/01:00am SE 8 9 - - - - - - - 8.8 1018.8 0.0
30/12:30am SSE 7 8 - - - - - - - 8.9 1019.1 0.0
30/12:00am SSE 7 9 - - - - - - - 9.2 1019.3 0.0
 
Date/Time
EST
Wind Sea
Height
m
Swell Vis
km
Cloud Weather Temp
°C
Press
MSL
hPa
Rain since
9am
mm
Dir  Spd
kts
Gust
kts
Height
m
Period
s
Dir
29/11:30pm SSE 8 9 - - - - - - - 9.4 1019.6 0.0
29/11:00pm SE 8 9 - - - - - - - 9.8 1019.5 0.0
29/10:30pm SSE 7 8 - - - - - - - 10.0 1019.8 0.0
29/10:00pm SSE 5 6 - - - - - - - 10.6 1019.9 0.0
29/09:30pm ENE 5 7 - - - - - - - 11.4 1020.1 0.0
29/09:00pm NE 4 6 - - - - - - - 13.3 1020.1 0.0
29/08:30pm NW 6 7 - - - - - - - 14.3 1020.1 0.0
29/08:00pm NW 7 9 - - - - - - - 14.1 1020.2 0.0
29/07:30pm NW 8 10 - - - - - - - 14.3 1020.1 0.0
29/07:00pm NW 9 11 - - - - - - - 14.4 1020.3 0.0
29/06:30pm NW 8 10 - - - - - - - 14.4 1020.3 0.0
29/06:00pm NNW 8 9 - - - - - - - 14.7 1020.2 0.0
29/05:30pm NW 8 10 - - - - - - - 14.5 1020.3 0.0
29/05:00pm NW 7 9 - - - - - - - 14.7 1020.2 0.0
29/04:30pm NW 9 10 - - - - - - - 14.9 1020.3 0.0
29/04:00pm NW 9 11 - - - - - - - 15.3 1020.5 0.0
29/03:30pm NW 10 12 - - - - - - - 16.0 1020.6 0.0
29/03:00pm NW 9 11 - - - - - - - 16.8 1020.7 0.0
29/02:30pm NW 9 11 - - - - - - - 16.5 1020.8 0.0
29/02:00pm NW 9 11 - - - - - - - 17.3 1020.9 0.0
29/01:30pm NW 9 11 - - - - - - - 17.2 1021.1 0.0
29/01:00pm NW 9 11 - - - - - - - 16.7 1021.6 0.0
29/12:30pm NW 9 10 - - - - - - - 16.7 1021.9 0.0
29/12:00pm NW 8 9 - - - - - - - 16.1 1022.4 0.0
29/11:30am NW 8 9 - - - - - - - 16.5 1022.8 0.0
29/11:00am NW 7 8 - - - - - - - 16.2 1023.2 0.0
29/10:30am NNW 4 5 - - - - - - - 15.3 1023.4 0.0
29/10:00am E 4 7 - - - - - - - 15.1 1023.4 0.0
29/09:30am ENE 2 6 - - - - - - - 14.8 1023.3 0.0
29/09:00am E 7 8 - - - - - - - 13.1 1023.4 0.0
29/08:30am E 8 9 - - - - - - - 12.4 1023.2 0.0
29/08:00am ENE 8 9 - - - - - - - 12.2 1023.1 0.0
29/07:30am E 7 8 - - - - - - - 12.2 1023.0 0.0
29/07:00am E 7 8 - - - - - - - 12.0 1022.9 0.0
29/06:30am ENE 7 9 - - - - - - - 12.3 1022.7 0.0
29/06:00am ENE 7 8 - - - - - - - 12.9 1022.6 0.0
29/05:30am E 9 10 - - - - - - - 12.3 1022.7 0.0
29/05:00am ENE 8 8 - - - - - - - 12.5 1022.6 0.0
29/04:30am E 9 10 - - - - - - - 12.5 1022.7 0.0
29/04:00am ENE 9 10 - - - - - - - 12.2 1022.8 0.0
29/03:30am ENE 8 11 - - - - - - - 11.6 1022.9 0.0
29/03:00am E 7 8 - - - - - - - 12.2 1023.2 0.0
29/02:30am E 7 9 - - - - - - - 11.4 1023.3 0.0
29/02:00am E 6 9 - - - - - - - 11.9 1023.2 0.0
29/01:30am NNW 3 4 - - - - - - - 13.3 1023.3 0.0
29/01:00am W 5 6 - - - - - - - 14.7 1023.3 0.0
29/12:30am NW 7 8 - - - - - - - 14.7 1023.6 0.0
29/12:00am NW 8 9 - - - - - - - 14.8 1023.8 0.0
 
Date/Time
EST
Wind Sea
Height
m
Swell Vis
km
Cloud Weather Temp
°C
Press
MSL
hPa
Rain since
9am
mm
Dir  Spd
kts
Gust
kts
Height
m
Period
s
Dir
28/11:30pm NW 9 11 - - - - - - - 14.9 1023.9 0.0
28/11:00pm WNW 9 10 - - - - - - - 14.9 1023.9 0.0
28/10:30pm NW 10 11 - - - - - - - 15.1 1024.0 0.0
28/10:00pm NW 11 12 - - - - - - - 15.2 1024.1 0.0
28/09:30pm WNW 11 13 - - - - - - - 15.0 1024.0 0.0
28/09:00pm WNW 10 11 - - - - - - - 15.1 1024.0 0.0
28/08:30pm WNW 12 14 - - - - - - - 15.2 1023.9 0.0
28/08:00pm WNW 12 15 - - - - - - - 15.3 1023.9 0.0
28/07:30pm WNW 12 14 - - - - - - - 15.2 1023.8 0.0
28/07:00pm WNW 13 15 - - - - - - - 15.2 1023.5 0.0
28/06:30pm WNW 13 16 - - - - - - - 15.3 1023.4 0.0
28/06:00pm NW 14 16 - - - - - - - 15.4 1023.2 0.0
28/05:30pm NW 14 17 - - - - - - - 15.4 1023.0 0.0
28/05:00pm NW 14 17 - - - - - - - 15.5 1022.9 0.0
28/04:30pm NW 13 16 - - - - - - - 15.8 1022.9 0.0
28/04:00pm WNW 14 17 - - - - - - - 16.2 1022.7 0.0
28/03:30pm NW 15 17 - - - - - - - 16.4 1022.8 0.0
28/03:00pm NW 13 16 - - - - - - - 16.7 1022.6 0.0
28/02:30pm NW 13 16 - - - - - - - 16.8 1022.5 0.0
28/02:00pm NW 14 16 - - - - - - - 16.8 1022.4 0.0
28/01:30pm WNW 15 18 - - - - - - - 17.3 1022.5 0.0
28/01:00pm WNW 16 19 - - - - - - - 16.9 1022.5 0.0
28/12:30pm WNW 16 18 - - - - - - - 16.7 1022.8 0.0
28/12:00pm WNW 17 19 - - - - - - - 16.6 1022.9 0.0
28/11:30am WNW 16 19 - - - - - - - 16.9 1023.2 0.0
28/11:00am WNW 17 20 - - - - - - - 16.3 1023.2 0.0
28/10:30am WNW 17 20 - - - - - - - 16.0 1023.1 0.0
28/10:00am WNW 18 22 - - - - - - - 15.6 1023.1 0.0
28/09:30am WNW 20 23 - - - - - - - 15.4 1022.9 0.0
28/09:00am WNW 19 23 - - - - - - - 15.0 1022.9 0.2
28/08:30am WNW 21 24 - - - - - - - 15.1 1022.7 0.2
28/08:00am WNW 19 23 - - - - - - - 15.0 1022.3 0.2
28/07:30am WNW 21 25 - - - - - - - 14.9 1022.0 0.2
28/07:00am WNW 21 25 - - - - - - - 14.8 1022.0 0.2
28/06:30am WNW 20 23 - - - - - - - 14.8 1021.5 0.2
28/06:00am WNW 20 24 - - - - - - - 14.9 1021.5 0.2
28/05:30am WNW 18 22 - - - - - - - 14.8 1021.5 0.2
28/05:00am WNW 18 21 - - - - - - - 14.7 1021.4 0.2
28/04:30am WNW 18 21 - - - - - - - 14.7 1021.4 0.2
28/04:00am W 19 23 - - - - - - - 14.6 1021.3 0.2
28/03:30am W 18 22 - - - - - - - 14.7 1021.5 0.2
28/03:00am W 17 20 - - - - - - - 14.5 1021.6 0.2
28/02:30am W 18 22 - - - - - - - 14.4 1021.7 0.2
28/02:00am W 19 22 - - - - - - - 14.2 1021.5 0.2
28/01:30am W 19 22 - - - - - - - 14.1 1021.5 0.2
28/01:00am W 17 21 - - - - - - - 14.2 1021.5 0.2
28/12:30am W 18 21 - - - - - - - 14.2 1021.5 0.2
28/12:00am W 19 23 - - - - - - - 14.3 1021.9 0.2
 
Date/Time
EST
Wind Sea
Height
m
Swell Vis
km
Cloud Weather Temp
°C
Press
MSL
hPa
Rain since
9am
mm
Dir  Spd
kts
Gust
kts
Height
m
Period
s
Dir
27/11:30pm W 21 25 - - - - - - - 14.3 1021.7 0.2
27/11:00pm W 17 19 - - - - - - - 14.3 1021.8 0.2
27/10:30pm W 18 21 - - - - - - - 14.2 1021.7 0.2
27/10:00pm W 18 23 - - - - - - - 14.2 1021.6 0.2
27/09:30pm W 20 24 - - - - - - - 14.1 1021.7 0.2
27/09:00pm W 19 25 - - - - - - - 13.8 1021.6 0.2
27/08:30pm W 20 25 - - - - - - - 13.8 1021.7 0.2
27/08:00pm W 22 27 - - - - - - - 13.9 1022.0 0.2
27/07:30pm W 23 28 - - - - - - - 14.1 1021.5 0.2
27/07:00pm W 19 23 - - - - - - - 14.4 1021.0 0.2
27/06:30pm W 20 23 - - - - - - - 14.2 1021.1 0.2
27/06:00pm WNW 19 24 - - - - - - - 14.3 1020.9 0.2
27/05:30pm WNW 22 27 - - - - - - - 14.3 1020.5 0.2

Other formats

Comma delimited format used in spreadsheet applications
http://www.bom.gov.au/fwo/IDT60701/IDT60701.95964.axf

JavaScript Object Notation format (JSON) in row-major order
http://www.bom.gov.au/fwo/IDT60701/IDT60701.95964.json

Data quality

Most of these data are generated automatically and are frequently updated. Quality checks on data are not normally performed. It is possible for incorrect values to appear. Refer to information at About Latest Weather Observations and please check the disclaimer before using these data.